createdAt,value
2023-04-12T00:00:52.637Z,10.03
2023-04-12T00:01:54.201Z,10.03
2023-04-12T00:02:55.852Z,10.00
2023-04-12T00:03:57.635Z,9.97
2023-04-12T00:05:02.684Z,9.98
2023-04-12T00:06:07.342Z,9.99
2023-04-12T00:07:10.108Z,9.98
2023-04-12T00:08:11.625Z,9.95
2023-04-12T00:09:13.809Z,9.94
2023-04-12T00:10:15.570Z,9.84
2023-04-12T00:11:17.154Z,9.85
2023-04-12T00:12:19.475Z,9.85
2023-04-12T00:13:21.147Z,9.91
2023-04-12T00:14:22.689Z,9.84
2023-04-12T00:15:24.407Z,9.81
2023-04-12T00:16:26.175Z,9.80
2023-04-12T00:17:27.873Z,9.84
2023-04-12T00:18:29.419Z,9.92
2023-04-12T00:19:31.136Z,9.94
2023-04-12T00:20:32.960Z,9.87
2023-04-12T00:21:34.477Z,9.83
2023-04-12T00:22:37.048Z,9.83
2023-04-12T00:23:39.443Z,9.90
2023-04-12T00:24:41.629Z,9.90
2023-04-12T00:25:43.150Z,9.94
2023-04-12T00:26:44.676Z,9.90
2023-04-12T00:27:46.212Z,9.89
2023-04-12T00:28:48.443Z,9.88
2023-04-12T00:29:49.978Z,9.85
2023-04-12T00:30:51.581Z,9.88
2023-04-12T00:31:53.369Z,9.88
2023-04-12T00:32:54.944Z,9.83
2023-04-12T00:33:56.713Z,9.83
2023-04-12T00:34:58.436Z,9.85
2023-04-12T00:36:00.001Z,9.86
2023-04-12T00:37:02.299Z,9.89
2023-04-12T00:38:06.218Z,9.83
2023-04-12T00:39:07.936Z,9.83
2023-04-12T00:40:10.186Z,9.88
2023-04-12T00:41:12.735Z,9.91
2023-04-12T00:42:14.323Z,9.91
2023-04-12T00:43:19.722Z,9.89
2023-04-12T00:44:21.308Z,9.87
2023-04-12T00:45:23.192Z,9.85
2023-04-12T00:46:24.819Z,9.91
2023-04-12T00:47:26.656Z,9.95
2023-04-12T00:48:28.918Z,9.96
2023-04-12T00:49:31.521Z,9.94
2023-04-12T00:50:33.080Z,9.91
2023-04-12T00:51:34.670Z,9.89
2023-04-12T00:52:36.386Z,9.88
2023-04-12T00:53:39.677Z,9.93
2023-04-12T00:54:43.296Z,9.93
2023-04-12T00:55:46.093Z,9.88
2023-04-12T00:56:48.117Z,9.95
2023-04-12T00:57:49.876Z,9.99
2023-04-12T00:58:52.431Z,9.98
2023-04-12T00:59:53.988Z,10.00
2023-04-12T01:00:55.622Z,10.05
2023-04-12T01:01:58.252Z,10.05
2023-04-12T01:03:02.479Z,10.08
2023-04-12T01:04:04.833Z,10.06
2023-04-12T01:05:08.540Z,10.04
2023-04-12T01:06:21.163Z,10.08
2023-04-12T01:07:55.440Z,10.12
2023-04-12T01:09:06.279Z,10.15
2023-04-12T01:10:20.604Z,10.20
2023-04-12T01:11:42.353Z,10.19
2023-04-12T01:12:44.318Z,10.25
2023-04-12T01:14:14.962Z,10.29
2023-04-12T01:15:17.269Z,10.32
2023-04-12T01:16:46.211Z,10.34
2023-04-12T01:17:58.193Z,10.34
2023-04-12T01:19:06.316Z,10.30
2023-04-12T01:20:14.395Z,10.37
2023-04-12T01:21:31.280Z,10.44
2023-04-12T01:23:43.806Z,10.42
2023-04-12T01:25:03.825Z,10.49
2023-04-12T01:26:21.879Z,10.48
2023-04-12T01:27:42.141Z,10.51
2023-04-12T01:28:45.330Z,10.46
2023-04-12T01:29:50.094Z,10.46
2023-04-12T01:30:52.200Z,10.48
2023-04-12T01:31:58.189Z,10.51
2023-04-12T01:33:07.285Z,10.50
2023-04-12T01:34:11.880Z,10.49
2023-04-12T01:35:15.911Z,10.54
2023-04-12T01:36:22.775Z,10.55
2023-04-12T01:37:24.614Z,10.50
2023-04-12T01:38:27.144Z,10.48
2023-04-12T01:39:30.917Z,10.47
2023-04-12T01:40:33.374Z,10.47
2023-04-12T01:41:39.981Z,10.51
2023-04-12T01:42:41.536Z,10.49
2023-04-12T01:43:44.103Z,10.48
2023-04-12T01:44:46.027Z,10.41
2023-04-12T01:45:47.617Z,10.41
2023-04-12T01:46:49.684Z,10.44
2023-04-12T01:47:51.313Z,10.43
2023-04-12T01:48:54.532Z,10.42
2023-04-12T01:50:04.980Z,10.42
2023-04-12T01:51:14.391Z,10.38
2023-04-12T01:52:21.180Z,10.40
2023-04-12T01:53:38.025Z,10.38
2023-04-12T01:54:42.654Z,10.37
2023-04-12T01:55:48.331Z,10.41
2023-04-12T01:56:54.887Z,10.36
2023-04-12T01:57:57.754Z,10.32
2023-04-12T01:59:02.378Z,10.36
2023-04-12T02:00:07.640Z,10.35
2023-04-12T02:01:11.776Z,10.32
2023-04-12T02:02:13.945Z,10.29
2023-04-12T02:03:16.623Z,10.24
2023-04-12T02:04:19.735Z,10.25
2023-04-12T02:05:21.584Z,10.32
2023-04-12T02:06:23.882Z,10.38
2023-04-12T02:07:25.651Z,10.38
2023-04-12T02:08:27.195Z,10.36
2023-04-12T02:09:28.774Z,10.36
2023-04-12T02:10:36.574Z,10.37
2023-04-12T02:11:38.187Z,10.31
2023-04-12T02:12:39.739Z,10.27
2023-04-12T02:13:41.435Z,10.35
2023-04-12T02:14:43.000Z,10.30
2023-04-12T02:15:45.884Z,10.35
2023-04-12T02:16:48.031Z,10.35
2023-04-12T02:17:54.007Z,10.37
2023-04-12T02:18:58.873Z,10.36
2023-04-12T02:20:01.044Z,10.40
2023-04-12T02:21:02.629Z,10.46
2023-04-12T02:22:05.769Z,10.49
2023-04-12T02:23:07.284Z,10.49
2023-04-12T02:24:10.431Z,10.48
2023-04-12T02:25:12.059Z,10.47
2023-04-12T02:26:13.606Z,10.47
2023-04-12T02:27:18.818Z,10.49
2023-04-12T02:28:20.424Z,10.54
2023-04-12T02:29:21.962Z,10.56
2023-04-12T02:30:23.559Z,10.49
2023-04-12T02:31:25.129Z,10.42
2023-04-12T02:32:26.671Z,10.42
2023-04-12T02:33:29.177Z,10.41
2023-04-12T02:34:34.309Z,10.40
2023-04-12T02:35:36.421Z,10.36
2023-04-12T02:36:38.195Z,10.39
2023-04-12T02:37:40.462Z,10.44
2023-04-12T02:38:42.094Z,10.45
2023-04-12T02:39:44.760Z,10.45
2023-04-12T02:40:46.292Z,10.44
2023-04-12T02:41:47.865Z,10.43
2023-04-12T02:42:49.496Z,10.44
2023-04-12T02:43:51.449Z,10.27
2023-04-12T02:44:53.050Z,10.17
2023-04-12T02:45:54.691Z,10.20
2023-04-12T02:46:56.292Z,10.22
2023-04-12T02:47:57.842Z,10.21
2023-04-12T02:48:59.377Z,10.18
2023-04-12T02:50:00.985Z,10.16
2023-04-12T02:51:02.649Z,10.23
2023-04-12T02:52:04.795Z,10.29
2023-04-12T02:53:06.337Z,10.27
2023-04-12T02:54:07.873Z,10.22
2023-04-12T02:55:09.777Z,10.27
2023-04-12T02:56:12.029Z,10.31
2023-04-12T02:57:13.766Z,10.34
2023-04-12T02:58:15.386Z,10.35
2023-04-12T02:59:17.276Z,10.38
2023-04-12T03:00:19.107Z,10.30
2023-04-12T03:01:20.770Z,10.28
2023-04-12T03:02:23.353Z,10.32
2023-04-12T03:03:26.310Z,10.36
2023-04-12T03:04:30.678Z,10.42
2023-04-12T03:05:32.404Z,10.37
2023-04-12T03:06:34.124Z,10.29
2023-04-12T03:07:36.270Z,10.29
2023-04-12T03:08:38.344Z,10.29
2023-04-12T03:09:42.583Z,10.33
2023-04-12T03:10:44.329Z,10.36
2023-04-12T03:11:46.845Z,10.38
2023-04-12T03:12:48.400Z,10.42
2023-04-12T03:13:49.932Z,10.47
2023-04-12T03:14:51.517Z,10.51
2023-04-12T03:15:58.379Z,10.51
2023-04-12T03:17:00.024Z,10.54
2023-04-12T03:18:01.649Z,10.58
2023-04-12T03:19:03.606Z,10.57
2023-04-12T03:20:11.099Z,10.55
2023-04-12T03:21:12.639Z,10.53
2023-04-12T03:22:14.212Z,10.52
2023-04-12T03:23:15.869Z,10.55
2023-04-12T03:24:17.465Z,10.57
2023-04-12T03:25:19.181Z,10.60
2023-04-12T03:26:20.868Z,10.58
2023-04-12T03:27:22.485Z,10.52
2023-04-12T03:28:23.997Z,10.47
2023-04-12T03:29:25.540Z,10.42
2023-04-12T03:30:27.067Z,10.43
2023-04-12T03:31:28.653Z,10.44
2023-04-12T03:32:30.376Z,10.45
2023-04-12T03:33:31.984Z,10.47
2023-04-12T03:34:33.606Z,10.46
2023-04-12T03:35:35.204Z,10.47
2023-04-12T03:36:38.044Z,10.48
2023-04-12T03:37:41.505Z,10.46
2023-04-12T03:38:43.045Z,10.44
2023-04-12T03:39:47.975Z,10.46
2023-04-12T03:40:49.893Z,10.48
2023-04-12T03:41:53.143Z,10.53
2023-04-12T03:42:54.741Z,10.51
2023-04-12T03:43:56.923Z,10.52
2023-04-12T03:44:58.772Z,10.53
2023-04-12T03:46:00.392Z,10.46
2023-04-12T03:47:02.045Z,10.29
2023-04-12T03:48:05.026Z,10.24
2023-04-12T03:49:06.616Z,10.15
2023-04-12T03:50:12.235Z,10.09
2023-04-12T03:51:15.353Z,10.09
2023-04-12T03:52:16.875Z,10.02
2023-04-12T03:53:18.386Z,10.07
2023-04-12T03:54:20.717Z,10.12
2023-04-12T03:55:22.511Z,10.14
2023-04-12T03:56:24.094Z,10.10
2023-04-12T03:57:26.162Z,9.96
2023-04-12T03:58:27.699Z,9.96
2023-04-12T03:59:29.742Z,10.07
2023-04-12T04:00:34.128Z,10.15
2023-04-12T04:01:36.326Z,10.27
2023-04-12T04:02:38.530Z,10.31
2023-04-12T04:03:41.243Z,10.39
2023-04-12T04:04:43.183Z,10.44
2023-04-12T04:05:45.317Z,10.46
2023-04-12T04:06:47.369Z,10.48
2023-04-12T04:07:48.912Z,10.52
2023-04-12T04:08:50.719Z,10.56
2023-04-12T04:09:54.548Z,10.59
2023-04-12T04:11:00.731Z,10.61
2023-04-12T04:12:02.344Z,10.64
2023-04-12T04:13:03.927Z,10.69
2023-04-12T04:14:05.723Z,10.75
2023-04-12T04:15:07.958Z,10.79
2023-04-12T04:16:11.048Z,10.82
2023-04-12T04:17:12.624Z,10.85
2023-04-12T04:18:14.298Z,10.87
2023-04-12T04:19:15.892Z,10.91
2023-04-12T04:20:18.854Z,10.94
2023-04-12T04:21:22.372Z,10.97
2023-04-12T04:22:23.980Z,10.98
2023-04-12T04:23:25.502Z,11.00
2023-04-12T04:24:27.037Z,11.03
2023-04-12T04:25:30.191Z,11.04
2023-04-12T04:26:34.633Z,10.96
2023-04-12T04:27:38.511Z,10.96
2023-04-12T04:28:45.550Z,10.96
2023-04-12T04:29:47.403Z,10.94
2023-04-12T04:30:48.982Z,10.99
2023-04-12T04:31:50.877Z,11.03
2023-04-12T04:32:52.902Z,11.06
2023-04-12T04:33:54.642Z,11.07
2023-04-12T04:34:59.844Z,11.04
2023-04-12T04:36:02.110Z,11.08
2023-04-12T04:37:03.716Z,11.12
2023-04-12T04:38:05.215Z,11.13
2023-04-12T04:39:06.746Z,11.15
2023-04-12T04:40:08.891Z,11.10
2023-04-12T04:41:10.473Z,11.11
2023-04-12T04:42:11.981Z,11.11
2023-04-12T04:43:13.981Z,11.10
2023-04-12T04:44:15.581Z,11.01
2023-04-12T04:45:17.204Z,10.96
2023-04-12T04:46:22.122Z,10.98
2023-04-12T04:47:25.092Z,11.02
2023-04-12T04:48:26.883Z,11.04
2023-04-12T04:49:29.308Z,11.04
2023-04-12T04:50:31.278Z,11.03
2023-04-12T04:51:32.970Z,10.93
2023-04-12T04:52:34.527Z,10.85
2023-04-12T04:53:36.983Z,10.86
2023-04-12T04:54:38.884Z,10.87
2023-04-12T04:55:41.372Z,10.80
2023-04-12T04:56:42.926Z,10.74
2023-04-12T04:57:44.949Z,10.72
2023-04-12T04:58:46.678Z,10.65
2023-04-12T04:59:48.181Z,10.62
2023-04-12T05:00:49.825Z,10.66
2023-04-12T05:01:52.414Z,10.77
2023-04-12T05:02:54.242Z,10.89
2023-04-12T05:03:56.303Z,10.97
2023-04-12T05:05:00.004Z,11.07
2023-04-12T05:06:04.420Z,11.16
2023-04-12T05:07:06.323Z,11.22
2023-04-12T05:08:07.995Z,11.24
2023-04-12T05:09:10.148Z,11.23
2023-04-12T05:10:11.976Z,11.28
2023-04-12T05:11:13.702Z,11.33
2023-04-12T05:12:15.458Z,11.42
2023-04-12T05:13:17.041Z,11.50
2023-04-12T05:14:18.902Z,11.55
2023-04-12T05:15:21.319Z,11.60
2023-04-12T05:16:22.914Z,11.62
2023-04-12T05:17:24.493Z,11.58
2023-04-12T05:18:26.328Z,11.62
2023-04-12T05:19:27.821Z,11.60
2023-04-12T05:20:29.335Z,11.44
2023-04-12T05:21:31.190Z,11.43
2023-04-12T05:22:32.748Z,11.52
2023-04-12T05:23:41.851Z,11.58
2023-04-12T05:24:43.406Z,11.60
2023-04-12T05:25:48.433Z,11.59
2023-04-12T05:26:50.840Z,11.62
2023-04-12T05:27:52.379Z,11.60
2023-04-12T05:28:53.980Z,11.66
2023-04-12T05:29:57.154Z,11.61
2023-04-12T05:30:58.862Z,11.66
2023-04-12T05:32:00.481Z,11.59
2023-04-12T05:33:02.174Z,11.55
2023-04-12T05:34:03.980Z,11.50
2023-04-12T05:35:06.193Z,11.47
2023-04-12T05:36:07.974Z,11.49
2023-04-12T05:37:09.717Z,11.52
2023-04-12T05:38:11.330Z,11.61
2023-04-12T05:39:12.882Z,11.68
2023-04-12T05:40:14.445Z,11.73
2023-04-12T05:41:16.060Z,11.81
2023-04-12T05:42:17.580Z,11.86
2023-04-12T05:43:19.253Z,11.91
2023-04-12T05:44:20.839Z,11.91
2023-04-12T05:45:22.447Z,11.94
2023-04-12T05:46:24.073Z,11.96
2023-04-12T05:47:25.794Z,12.00
2023-04-12T05:48:27.412Z,12.06
2023-04-12T05:49:31.295Z,12.13
2023-04-12T05:50:32.878Z,12.13
2023-04-12T05:51:41.063Z,12.16
2023-04-12T05:52:43.298Z,12.21
2023-04-12T05:53:44.840Z,12.29
2023-04-12T05:54:46.495Z,12.41
2023-04-12T05:55:48.253Z,12.44
2023-04-12T05:56:49.891Z,12.51
2023-04-12T05:57:51.592Z,12.57
2023-04-12T05:58:53.142Z,12.60
2023-04-12T05:59:54.929Z,12.64
2023-04-12T06:00:56.547Z,12.75
2023-04-12T06:01:58.929Z,12.72
2023-04-12T06:03:00.636Z,12.76
2023-04-12T06:04:02.500Z,12.84
2023-04-12T06:05:05.246Z,12.88
2023-04-12T06:06:08.001Z,12.96
2023-04-12T06:07:10.082Z,13.03
2023-04-12T06:08:12.936Z,13.11
2023-04-12T06:09:15.173Z,13.11
2023-04-12T06:10:18.056Z,12.97
2023-04-12T06:11:19.757Z,12.91
2023-04-12T06:12:21.320Z,12.94
2023-04-12T06:13:22.864Z,12.92
2023-04-12T06:14:24.429Z,12.94
2023-04-12T06:15:26.320Z,12.96
2023-04-12T06:16:28.075Z,13.01
2023-04-12T06:17:29.705Z,13.01
2023-04-12T06:18:31.502Z,13.00
2023-04-12T06:19:33.025Z,12.99
2023-04-12T06:20:34.776Z,12.97
2023-04-12T06:21:36.458Z,12.94
2023-04-12T06:22:38.402Z,12.92
2023-04-12T06:23:39.984Z,12.89
2023-04-12T06:24:41.601Z,12.81
2023-04-12T06:25:43.194Z,12.79
2023-04-12T06:26:47.010Z,12.85
2023-04-12T06:27:48.560Z,12.72
2023-04-12T06:28:50.066Z,12.63
2023-04-12T06:29:52.117Z,12.58
2023-04-12T06:30:54.478Z,12.59
2023-04-12T06:31:56.100Z,12.63
2023-04-12T06:32:58.010Z,12.59
2023-04-12T06:34:00.990Z,12.66
2023-04-12T06:35:02.768Z,12.65
2023-04-12T06:36:04.679Z,12.71
2023-04-12T06:37:06.206Z,12.67
2023-04-12T06:38:07.748Z,12.67
2023-04-12T06:39:09.726Z,12.72
2023-04-12T06:40:12.597Z,12.73
2023-04-12T06:41:14.348Z,12.61
2023-04-12T06:42:16.069Z,12.52
2023-04-12T06:43:20.303Z,12.50
2023-04-12T06:44:21.904Z,12.49
2023-04-12T06:45:23.481Z,12.52
2023-04-12T06:46:28.394Z,12.50
2023-04-12T06:47:30.808Z,12.44
2023-04-12T06:48:32.405Z,12.42
2023-04-12T06:49:33.949Z,12.35
2023-04-12T06:50:35.677Z,12.32
2023-04-12T06:51:37.365Z,12.29
2023-04-12T06:52:38.944Z,12.26
2023-04-12T06:53:40.634Z,12.31
2023-04-12T06:54:42.455Z,12.26
2023-04-12T06:55:44.062Z,12.24
2023-04-12T06:56:45.673Z,12.21
2023-04-12T06:57:47.311Z,12.17
2023-04-12T06:58:48.964Z,12.20
2023-04-12T06:59:51.621Z,12.22
2023-04-12T07:00:53.196Z,12.23
2023-04-12T07:01:54.956Z,12.23
2023-04-12T07:02:56.754Z,12.19
2023-04-12T07:03:58.575Z,12.15
2023-04-12T07:05:00.183Z,12.17
2023-04-12T07:06:17.209Z,12.15
2023-04-12T07:07:25.883Z,12.16
2023-04-12T07:08:29.702Z,12.12
2023-04-12T07:09:32.530Z,12.16
2023-04-12T07:10:36.065Z,12.14
2023-04-12T07:11:37.620Z,12.10
2023-04-12T07:12:39.346Z,12.07
2023-04-12T07:13:40.915Z,12.10
2023-04-12T07:14:44.645Z,12.13
2023-04-12T07:15:47.315Z,12.11
2023-04-12T07:16:49.211Z,12.10
2023-04-12T07:17:51.872Z,12.12
2023-04-12T07:18:53.429Z,12.13
2023-04-12T07:19:55.130Z,12.12
2023-04-12T07:20:59.561Z,12.15
2023-04-12T07:22:01.135Z,12.11
2023-04-12T07:23:02.695Z,12.12
2023-04-12T07:24:04.463Z,12.02
2023-04-12T07:25:10.320Z,11.97
2023-04-12T07:26:11.976Z,12.00
2023-04-12T07:27:13.528Z,12.04
2023-04-12T07:28:15.092Z,12.04
2023-04-12T07:29:17.407Z,11.97
2023-04-12T07:30:19.081Z,11.98
2023-04-12T07:31:20.860Z,12.00
2023-04-12T07:32:23.078Z,12.01
2023-04-12T07:33:26.505Z,12.06
2023-04-12T07:34:28.279Z,12.12
2023-04-12T07:35:29.962Z,12.11
2023-04-12T07:36:31.940Z,12.10
2023-04-12T07:37:33.454Z,12.15
2023-04-12T07:38:35.092Z,12.18
2023-04-12T07:39:37.486Z,12.18
2023-04-12T07:40:39.099Z,12.13
2023-04-12T07:41:46.338Z,12.15
2023-04-12T07:42:47.855Z,12.17
2023-04-12T07:43:50.406Z,12.18
2023-04-12T07:44:51.947Z,12.19
2023-04-12T07:45:56.474Z,12.20
2023-04-12T07:46:58.188Z,12.25
2023-04-12T07:47:59.765Z,12.30
2023-04-12T07:49:01.611Z,12.31
2023-04-12T07:50:04.115Z,12.30
2023-04-12T07:51:06.221Z,12.27
2023-04-12T07:52:07.902Z,12.28
2023-04-12T07:53:22.894Z,12.24
2023-04-12T07:54:27.824Z,12.12
2023-04-12T07:55:29.424Z,12.09
2023-04-12T07:56:34.561Z,12.11
2023-04-12T07:57:36.457Z,12.11
2023-04-12T07:58:38.027Z,12.07
2023-04-12T07:59:39.638Z,12.02
2023-04-12T08:00:41.428Z,12.03
2023-04-12T08:01:43.006Z,12.06
2023-04-12T08:02:44.689Z,12.05
2023-04-12T08:03:47.523Z,12.04
2023-04-12T08:04:49.248Z,12.01
2023-04-12T08:05:53.834Z,11.95
2023-04-12T08:06:55.694Z,11.89
2023-04-12T08:07:57.231Z,11.87
2023-04-12T08:08:58.800Z,11.93
2023-04-12T08:10:00.351Z,11.95
2023-04-12T08:11:03.096Z,11.96
2023-04-12T08:12:04.797Z,11.98
2023-04-12T08:13:07.023Z,11.92
2023-04-12T08:14:08.639Z,11.85
2023-04-12T08:15:10.504Z,11.81
2023-04-12T08:16:13.207Z,11.78
2023-04-12T08:17:16.634Z,11.79
2023-04-12T08:18:18.491Z,11.80
2023-04-12T08:19:20.466Z,11.80
2023-04-12T08:20:22.098Z,11.75
2023-04-12T08:21:23.792Z,11.73
2023-04-12T08:22:25.935Z,11.80
2023-04-12T08:23:28.120Z,11.81
2023-04-12T08:24:29.804Z,11.85
2023-04-12T08:25:31.512Z,11.90
2023-04-12T08:26:33.129Z,11.94
2023-04-12T08:27:34.912Z,11.97
2023-04-12T08:28:37.833Z,11.94
2023-04-12T08:29:40.996Z,11.91
2023-04-12T08:30:43.747Z,12.00
2023-04-12T08:31:47.325Z,11.98
2023-04-12T08:32:48.942Z,12.02
2023-04-12T08:33:50.734Z,12.05
2023-04-12T08:34:52.312Z,12.00
2023-04-12T08:35:54.357Z,12.00
2023-04-12T08:36:59.278Z,12.01
2023-04-12T08:38:06.961Z,12.04
2023-04-12T08:39:09.548Z,12.01
2023-04-12T08:40:11.402Z,12.12
2023-04-12T08:41:14.022Z,12.15
2023-04-12T08:42:16.898Z,12.24
2023-04-12T08:43:22.192Z,12.28
2023-04-12T08:44:35.910Z,12.33
2023-04-12T08:45:38.045Z,12.34
2023-04-12T08:46:39.755Z,12.42
2023-04-12T08:47:43.711Z,12.52
2023-04-12T08:48:47.520Z,12.57
2023-04-12T08:49:49.285Z,12.59
2023-04-12T08:50:52.158Z,12.66
2023-04-12T08:51:55.145Z,12.86
2023-04-12T08:52:58.919Z,13.04
2023-04-12T08:54:00.546Z,13.28
2023-04-12T08:55:04.322Z,13.37
2023-04-12T08:56:09.467Z,13.32
2023-04-12T08:57:13.210Z,13.36
2023-04-12T08:58:15.788Z,13.38
2023-04-12T08:59:17.718Z,13.30
2023-04-12T09:00:20.937Z,13.21
2023-04-12T09:01:22.677Z,13.19
2023-04-12T09:02:24.403Z,13.06
2023-04-12T09:03:26.715Z,12.90
2023-04-12T09:04:29.648Z,12.68
2023-04-12T09:05:31.912Z,12.50
2023-04-12T09:06:33.762Z,12.22
2023-04-12T09:07:36.166Z,12.09
2023-04-12T09:08:37.860Z,11.99
2023-04-12T09:09:42.957Z,11.81
2023-04-12T09:10:44.698Z,11.70
2023-04-12T09:11:46.231Z,11.65
2023-04-12T09:12:47.865Z,11.61
2023-04-12T09:13:49.418Z,11.59
2023-04-12T09:15:12.638Z,11.59
2023-04-12T09:16:14.415Z,11.66
2023-04-12T09:17:23.956Z,11.70
2023-04-12T09:18:27.486Z,11.86
2023-04-12T09:19:34.135Z,12.11
2023-04-12T09:20:36.808Z,12.27
2023-04-12T09:21:52.872Z,12.40
2023-04-12T09:22:55.799Z,12.47
2023-04-12T09:24:14.764Z,12.37
2023-04-12T09:25:16.659Z,12.39
2023-04-12T09:26:29.008Z,12.47
2023-04-12T09:27:30.592Z,12.51
2023-04-12T09:28:32.347Z,12.48
2023-04-12T09:29:34.375Z,12.44
2023-04-12T09:30:42.237Z,12.43
2023-04-12T09:31:56.030Z,12.44
2023-04-12T09:33:11.322Z,12.43
2023-04-12T09:34:12.872Z,12.47
2023-04-12T09:35:14.492Z,12.53
2023-04-12T09:36:17.580Z,12.61
2023-04-12T09:37:19.141Z,12.71
2023-04-12T09:38:20.670Z,12.79
2023-04-12T09:39:33.070Z,12.89
2023-04-12T09:40:36.460Z,12.94
2023-04-12T09:41:38.110Z,13.03
2023-04-12T09:42:53.784Z,13.07
2023-04-12T09:43:55.839Z,13.10
2023-04-12T09:44:58.592Z,13.13
2023-04-12T09:46:11.823Z,13.28
2023-04-12T09:47:13.620Z,13.35
2023-04-12T09:48:21.219Z,13.49
2023-04-12T09:49:44.842Z,13.67
2023-04-12T09:50:46.430Z,13.81
2023-04-12T09:51:52.621Z,13.93
2023-04-12T09:52:55.322Z,13.96
2023-04-12T09:54:02.287Z,13.86
2023-04-12T09:55:09.851Z,13.86
2023-04-12T09:56:12.449Z,13.91
2023-04-12T09:57:18.003Z,13.96
2023-04-12T09:58:21.476Z,14.02
2023-04-12T09:59:27.206Z,14.17
2023-04-12T10:00:30.488Z,14.27
2023-04-12T10:01:38.697Z,14.17
2023-04-12T10:02:42.797Z,14.20
2023-04-12T10:03:46.734Z,14.31
2023-04-12T10:04:48.865Z,14.25
2023-04-12T10:05:50.560Z,14.32
2023-04-12T10:06:52.392Z,14.34
2023-04-12T10:07:55.128Z,14.41
2023-04-12T10:08:57.417Z,14.50
2023-04-12T10:10:00.987Z,14.47
2023-04-12T10:11:02.884Z,14.44
2023-04-12T10:12:05.199Z,14.49
2023-04-12T10:13:07.324Z,14.54
2023-04-12T10:14:10.268Z,14.67
2023-04-12T10:15:13.608Z,14.83
2023-04-12T10:16:16.494Z,14.85
2023-04-12T10:17:21.345Z,14.79
2023-04-12T10:18:24.008Z,14.77
2023-04-12T10:19:26.874Z,14.58
2023-04-12T10:20:29.722Z,14.52
2023-04-12T10:21:31.589Z,14.51
2023-04-12T10:22:33.259Z,14.47
2023-04-12T10:23:35.324Z,14.37
2023-04-12T10:24:38.833Z,14.37
2023-04-12T10:25:42.828Z,14.46
2023-04-12T10:26:44.696Z,14.61
2023-04-12T10:27:47.645Z,14.77
2023-04-12T10:29:23.535Z,14.96
2023-04-12T10:30:32.177Z,15.13
2023-04-12T10:31:34.246Z,15.28
2023-04-12T10:32:36.518Z,15.32
2023-04-12T10:33:38.379Z,15.29
2023-04-12T10:34:42.721Z,15.22
2023-04-12T10:36:00.708Z,15.20
2023-04-12T10:37:02.885Z,15.25
2023-04-12T10:38:04.999Z,15.32
2023-04-12T10:39:11.085Z,15.45
2023-04-12T10:40:19.607Z,15.60
2023-04-12T10:41:22.229Z,15.61
2023-04-12T10:42:28.968Z,15.62
2023-04-12T10:43:30.767Z,15.70
2023-04-12T10:44:32.411Z,15.83
2023-04-12T10:45:34.157Z,16.04
2023-04-12T10:46:39.300Z,16.13
2023-04-12T10:47:50.304Z,16.04
2023-04-12T10:48:53.467Z,16.07
2023-04-12T10:50:20.002Z,15.89
2023-04-12T10:51:25.516Z,15.94
2023-04-12T10:52:27.137Z,15.83
2023-04-12T10:53:28.920Z,15.86
2023-04-12T10:54:35.589Z,15.90
2023-04-12T10:55:38.541Z,15.91
2023-04-12T10:56:47.424Z,15.97
2023-04-12T10:57:50.272Z,16.01
2023-04-12T10:58:52.377Z,15.96
2023-04-12T10:59:59.582Z,16.01
2023-04-12T11:01:10.048Z,16.04
2023-04-12T11:02:12.755Z,16.11
2023-04-12T11:03:14.969Z,16.29
2023-04-12T11:04:21.279Z,16.33
2023-04-12T11:05:24.531Z,16.23
2023-04-12T11:07:03.193Z,16.13
2023-04-12T11:08:05.748Z,15.97
2023-04-12T11:09:07.479Z,15.92
2023-04-12T11:10:16.690Z,15.85
2023-04-12T11:11:22.739Z,15.85
2023-04-12T11:12:29.172Z,15.90
2023-04-12T11:13:40.090Z,15.94
2023-04-12T11:14:53.139Z,16.04
2023-04-12T11:16:02.073Z,16.10
2023-04-12T11:17:06.550Z,16.06
2023-04-12T11:18:08.601Z,15.87
2023-04-12T11:19:10.780Z,15.70
2023-04-12T11:20:15.980Z,15.58
2023-04-12T11:21:19.043Z,15.42
2023-04-12T11:22:22.795Z,15.49
2023-04-12T11:23:24.650Z,15.68
2023-04-12T11:24:27.582Z,15.66
2023-04-12T11:25:29.690Z,15.64
2023-04-12T11:26:32.118Z,15.66
2023-04-12T11:27:34.466Z,15.84
2023-04-12T11:28:36.175Z,16.04
2023-04-12T11:29:38.122Z,16.05
2023-04-12T11:30:58.124Z,16.02
2023-04-12T11:32:02.572Z,15.98
2023-04-12T11:33:04.272Z,15.96
2023-04-12T11:34:05.909Z,15.84
2023-04-12T11:35:08.766Z,15.82
2023-04-12T11:36:15.121Z,15.72
2023-04-12T11:37:19.793Z,15.80
2023-04-12T11:38:21.351Z,15.91
2023-04-12T11:39:22.937Z,15.91
2023-04-12T11:40:24.551Z,15.87
2023-04-12T11:41:26.152Z,15.94
2023-04-12T11:42:29.344Z,15.91
2023-04-12T11:43:31.637Z,15.93
2023-04-12T11:44:44.194Z,16.10
2023-04-12T11:46:01.565Z,16.14
2023-04-12T11:47:04.456Z,16.21
2023-04-12T11:48:09.326Z,16.24
2023-04-12T11:49:11.085Z,16.22
2023-04-12T11:50:12.938Z,16.30
2023-04-12T11:51:32.185Z,16.42
2023-04-12T11:52:34.393Z,16.39
2023-04-12T11:53:35.999Z,16.16
2023-04-12T11:54:37.494Z,16.04
2023-04-12T11:55:39.235Z,16.05
2023-04-12T11:56:41.988Z,16.16
2023-04-12T11:57:43.514Z,16.22
2023-04-12T11:58:47.917Z,16.23
2023-04-12T11:59:49.776Z,16.16
2023-04-12T12:00:51.902Z,16.08
2023-04-12T12:01:54.293Z,16.22
2023-04-12T12:03:06.838Z,16.25
2023-04-12T12:04:09.370Z,16.27
2023-04-12T12:05:11.722Z,16.24
2023-04-12T12:06:14.686Z,16.15
2023-04-12T12:07:17.841Z,16.11
2023-04-12T12:08:20.064Z,16.12
2023-04-12T12:09:21.926Z,16.25
2023-04-12T12:10:40.068Z,16.34
2023-04-12T12:11:45.373Z,16.28
2023-04-12T12:12:48.128Z,16.33
2023-04-12T12:13:49.610Z,16.40
2023-04-12T12:14:51.214Z,16.42
2023-04-12T12:15:53.068Z,16.47
2023-04-12T12:16:56.927Z,16.49
2023-04-12T12:17:58.574Z,16.50
2023-04-12T12:19:04.224Z,16.58
2023-04-12T12:20:07.101Z,16.51
2023-04-12T12:21:10.827Z,16.47
2023-04-12T12:22:19.726Z,16.32
2023-04-12T12:23:28.753Z,16.41
2023-04-12T12:24:31.126Z,16.37
2023-04-12T12:25:32.639Z,16.45
2023-04-12T12:26:36.327Z,16.50
2023-04-12T12:27:38.921Z,16.52
2023-04-12T12:28:40.722Z,16.51
2023-04-12T12:29:42.393Z,16.68
2023-04-12T12:30:43.960Z,16.78
2023-04-12T12:31:47.639Z,16.65
2023-04-12T12:32:51.280Z,16.66
2023-04-12T12:33:57.466Z,16.49
2023-04-12T12:34:59.087Z,16.39
2023-04-12T12:36:00.627Z,16.34
2023-04-12T12:37:02.437Z,16.29
2023-04-12T12:38:07.261Z,16.39
2023-04-12T12:39:12.912Z,16.40
2023-04-12T12:40:14.762Z,16.40
2023-04-12T12:41:22.415Z,16.37
2023-04-12T12:42:23.950Z,16.33
2023-04-12T12:43:25.751Z,16.27
2023-04-12T12:44:27.320Z,16.34
2023-04-12T12:45:29.851Z,16.40
2023-04-12T12:46:44.734Z,16.40
2023-04-12T12:48:02.649Z,16.31
2023-04-12T12:49:04.817Z,16.29
2023-04-12T12:50:06.680Z,16.13
2023-04-12T12:51:09.960Z,16.07
2023-04-12T12:52:11.547Z,16.02
2023-04-12T12:53:13.637Z,16.11
2023-04-12T12:54:31.774Z,16.23
2023-04-12T12:55:38.500Z,16.40
2023-04-12T12:56:40.265Z,16.55
2023-04-12T12:57:58.332Z,16.60
2023-04-12T12:59:07.389Z,16.65
2023-04-12T13:00:10.272Z,16.66
2023-04-12T13:01:11.919Z,16.63
2023-04-12T13:02:15.680Z,16.60
2023-04-12T13:03:17.570Z,16.51
2023-04-12T13:04:19.283Z,16.40
2023-04-12T13:05:22.538Z,16.33
2023-04-12T13:06:25.889Z,16.33
2023-04-12T13:07:27.446Z,16.41
2023-04-12T13:08:34.352Z,16.37
2023-04-12T13:09:35.957Z,16.44
2023-04-12T13:10:37.490Z,16.54
2023-04-12T13:11:39.208Z,16.62
2023-04-12T13:12:40.843Z,16.72
2023-04-12T13:13:42.427Z,16.77
2023-04-12T13:14:43.961Z,16.77
2023-04-12T13:15:47.708Z,16.78
2023-04-12T13:16:49.468Z,16.89
2023-04-12T13:17:52.664Z,16.96
2023-04-12T13:18:54.556Z,17.02
2023-04-12T13:19:56.373Z,17.04
2023-04-12T13:20:58.018Z,16.92
2023-04-12T13:21:59.798Z,16.98
2023-04-12T13:23:01.563Z,17.02
2023-04-12T13:24:03.683Z,17.22
2023-04-12T13:25:05.767Z,17.17
2023-04-12T13:26:08.695Z,17.02
2023-04-12T13:27:16.731Z,16.93
2023-04-12T13:28:18.561Z,16.90
2023-04-12T13:29:20.367Z,16.83
2023-04-12T13:30:21.878Z,16.87
2023-04-12T13:31:23.559Z,16.89
2023-04-12T13:32:25.308Z,16.89
2023-04-12T13:33:27.100Z,16.90
2023-04-12T13:34:28.806Z,16.94
2023-04-12T13:35:30.332Z,17.03
2023-04-12T13:36:31.900Z,16.92
2023-04-12T13:37:34.203Z,16.85
2023-04-12T13:38:35.858Z,16.73
2023-04-12T13:39:40.010Z,16.65
2023-04-12T13:40:41.715Z,16.53
2023-04-12T13:41:43.431Z,16.52